Honolulu, HI (96815)

7:01 AM HST on August 30, 2014 (GMT -1000)
Kaimuki | Change Station
CLOSE
Current Station
Personal Weather Station
Location: Honolulu, HI
Elevation: 240 ft
Nearby Weather Stations
Active Advisory: High Surf Advisory

Elev 240 ft 21.27 °N, 157.80 °W | Updated 10 minutes ago

Mostly Cloudy
Mostly Cloudy
76.9 °F
Feels Like 79 °F
N
0.0
Wind Variable Wind from ENE
Gusts 5.0 mph

Today
High -- | Low -- °F
--% Chance of Precip.
Yesterday
High -- | Low -- °F
Precip. -- in
6:14 AM 6:48 PM
Waxing Crescent, 23% visible
Pressure 29.93 in
Visibility 10.0 miles
Clouds Few 2500 ft
Scattered Clouds 4000 ft
Mostly Cloudy 10000 ft
Heat Index 79 °F
Dew Point 69 °F
Humidity 77%
Rainfall 0.00 in
Snow Depth Not available.
UV 0 out of 12
Pollen Not available.
Air Quality Not available.
Flu Activity Not available.
METAR PHNL 301653Z VRB03KT 10SM FEW025 SCT040 BKN100 26/20 A2993 RMK AO2 SLP135 T02610200

More Conditions Fewer Conditions

Pressure 29.93 in
Visibility 10.0 miles
Clouds Few 2500 ft
Scattered Clouds 4000 ft
Mostly Cloudy 10000 ft
Heat Index 79 °F
Dew Point 69 °F
Humidity 77%
Rainfall 0.00 in
Snow Depth Not available.
UV 0 out of 12
Pollen Not available.
Air Quality Not available.
Flu Activity Not available.
METAR PHNL 301653Z VRB03KT 10SM FEW025 SCT040 BKN100 26/20 A2993 RMK AO2 SLP135 T02610200

More Conditions Fewer Conditions

10-Day Weather Forecast

Almanac

Astronomy

Aug. 30, 2014 Rise Set
Actual Time 6:14 AM HST 6:48 PM HST
Civil Twilight 5:51 AM HST 7:11 PM HST
Nautical Twilight 5:25 AM HST 7:37 PM HST
Astronomical Twilight 4:58 AM HST 8:04 PM HST
Moon 10:32 AM HST 10:13 PM HST
Length of Visible Light 13h 19m
Length of Day
12h 34m
Tomorrow will be 1m 10s shorter.
Waxing Crescent, 23% of the Moon is Illuminated
Today
Waxing Crescent
Sep 2
First Quarter
Sep 8
Full
Sep 15
Last Quarter
Sep 24
New

Today's Extremes

State Highs State Lows

Community

WunderPhotos

Upload Photos

1,748,566 photos uploaded!

WunderBlogs® & News

Nearby

Snow Depth

Station Depth Elevation
No new snow has been reported.

Earthquake Activity

City Distance Mag. Time & Date
No recent earthquake activity has been reported nearby.
Minimum magnitude displayed is 2.5.

Coastal Water Temperatures

Place Temperature
No Stations Reporting

Nearby Weather Stations